Time;durP1;ratioP1;P1;durP2;ratioP2;P2;SDS_P1;SDS_P2;PMS_P1;PMS_P2;Temp;Humidity;BMP_temperature;BMP_pressure;BME280_temperature;BME280_humidity;BME280_pressure;Samples;Min_cycle;Max_cycle;Signal;HPM_P1;HPM_P2
2023/12/16 00:02:04;;;;;;;13.87;11.70;;;;;;;5.25;100.00;152709.84;5041732;28;20473;-74
2023/12/16 00:04:30;;;;;;;14.67;11.83;;;;;;;5.22;100.00;152702.09;5042506;28;20507;-73
2023/12/16 00:06:57;;;;;;;14.73;11.87;;;;;;;5.20;100.00;152696.94;5044079;28;20446;-73
2023/12/16 00:09:24;;;;;;;12.60;11.17;;;;;;;5.17;100.00;152689.22;5044740;28;20443;-74
2023/12/16 00:11:51;;;;;;;13.90;11.10;;;;;;;5.17;100.00;152689.22;5039847;28;20455;-74
2023/12/16 00:14:18;;;;;;;12.43;10.40;;;;;;;5.18;100.00;152691.81;5043497;28;20803;-81
2023/12/16 00:16:45;;;;;;;14.00;10.50;;;;;;;5.16;100.00;152686.66;5045679;28;20446;-82
2023/12/16 00:19:12;;;;;;;14.17;10.53;;;;;;;5.15;100.00;152684.06;5045440;28;20479;-82
2023/12/16 00:21:38;;;;;;;12.70;10.67;;;;;;;5.13;100.00;152678.94;5042139;28;20474;-82
2023/12/16 00:24:06;;;;;;;12.20;10.20;;;;;;;5.13;100.00;152678.94;5048106;28;20470;-82
2023/12/16 00:26:33;;;;;;;13.00;10.63;;;;;;;5.08;100.00;152667.34;5044461;28;21020;-82
2023/12/16 00:28:59;;;;;;;12.67;10.33;;;;;;;5.05;100.00;152659.59;5043422;28;20468;-82
2023/12/16 00:31:27;;;;;;;11.57;9.90;;;;;;;5.02;100.00;152650.56;5042586;28;20450;-82
2023/12/16 00:33:54;;;;;;;12.93;9.70;;;;;;;5.02;100.00;152651.84;5042034;28;20445;-82
2023/12/16 00:36:21;;;;;;;13.63;11.93;;;;;;;5.08;100.00;152666.03;5046749;28;20524;-82
2023/12/16 00:38:47;;;;;;;12.17;10.00;;;;;;;5.09;100.00;152668.59;5044639;28;21081;-82
2023/12/16 00:41:14;;;;;;;14.60;10.57;;;;;;;5.12;100.00;152676.31;5044884;28;20463;-82
2023/12/16 00:43:40;;;;;;;11.93;9.50;;;;;;;5.11;100.00;152673.78;5043172;28;20461;-83
2023/12/16 00:46:08;;;;;;;13.20;11.10;;;;;;;5.09;100.00;152668.59;5017643;28;20997;-82
2023/12/16 00:48:36;;;;;;;12.07;9.60;;;;;;;5.08;100.00;152666.03;5043975;28;20453;-83
2023/12/16 00:51:03;;;;;;;14.63;10.57;;;;;;;5.09;100.00;152668.59;5042682;28;20455;-82
2023/12/16 00:53:29;;;;;;;12.60;10.10;;;;;;;5.10;100.00;152671.19;5042241;28;20983;-82
2023/12/16 00:55:56;;;;;;;12.03;10.73;;;;;;;5.12;100.00;152676.31;5043387;28;20470;-82
2023/12/16 00:58:23;;;;;;;13.87;10.80;;;;;;;5.14;100.00;152681.47;5044397;28;20458;-82
2023/12/16 01:00:50;;;;;;;12.80;10.40;;;;;;;5.12;100.00;152677.63;5043453;28;20455;-82
2023/12/16 01:03:16;;;;;;;10.90;9.50;;;;;;;5.12;100.00;152676.31;5027562;28;20889;-83
2023/12/16 01:05:44;;;;;;;14.77;12.17;;;;;;;5.13;100.00;152678.94;5047687;28;20445;-82
2023/12/16 01:08:10;;;;;;;15.53;10.53;;;;;;;5.13;100.00;152678.94;5041989;28;20447;-83
2023/12/16 01:10:38;;;;;;;12.43;10.80;;;;;;;5.14;100.00;152681.47;5043038;28;20466;-82
2023/12/16 01:13:05;;;;;;;14.30;11.80;;;;;;;5.13;100.00;152678.94;5044075;28;20454;-82
2023/12/16 01:15:31;;;;;;;15.13;10.83;;;;;;;5.14;100.00;152682.78;5043196;28;21055;-83
2023/12/16 01:17:58;;;;;;;12.87;10.50;;;;;;;5.13;100.00;152678.94;5043030;28;20478;-83
2023/12/16 01:20:24;;;;;;;13.43;12.07;;;;;;;5.13;100.00;152678.94;5046170;28;20569;-82
2023/12/16 01:22:52;;;;;;;12.27;10.57;;;;;;;5.13;100.00;152678.94;5042249;28;20466;-82
2023/12/16 01:25:19;;;;;;;15.90;11.73;;;;;;;5.16;100.00;152686.66;5046109;28;20450;-82
2023/12/16 01:27:45;;;;;;;15.33;12.33;;;;;;;5.14;100.00;152681.47;5042405;28;20513;-82
2023/12/16 01:30:12;;;;;;;13.77;11.57;;;;;;;5.15;100.00;152684.06;5046037;28;20454;-83
2023/12/16 01:32:39;;;;;;;15.33;10.57;;;;;;;5.15;100.00;152684.06;5043681;28;20447;-82
2023/12/16 01:35:06;;;;;;;13.70;12.20;;;;;;;5.12;100.00;152677.63;5042851;28;20828;-82
2023/12/16 01:37:32;;;;;;;14.57;12.03;;;;;;;5.12;100.00;152677.63;5044014;28;20439;-82
2023/12/16 01:40:01;;;;;;;12.67;11.33;;;;;;;5.12;100.00;152676.31;5043011;28;20467;-83
2023/12/16 01:42:27;;;;;;;12.23;10.10;;;;;;;5.10;100.00;152671.19;5043314;28;21479;-83
2023/12/16 01:44:54;;;;;;;14.77;11.43;;;;;;;5.09;100.00;152668.59;5024990;28;20466;-82
2023/12/16 01:47:19;;;;;;;14.87;11.20;;;;;;;5.09;100.00;152669.88;5045719;28;20446;-82
2023/12/16 01:49:47;;;;;;;15.47;11.80;;;;;;;5.08;100.00;152667.34;5046519;28;20933;-83
2023/12/16 01:52:14;;;;;;;12.50;10.07;;;;;;;5.11;100.00;152673.78;5044523;28;20202;-83
2023/12/16 01:54:41;;;;;;;15.27;12.00;;;;;;;5.10;100.00;152671.19;5042841;28;20459;-82
2023/12/16 01:57:09;;;;;;;15.57;11.77;;;;;;;5.11;100.00;152675.03;5042932;28;20860;-82
2023/12/16 01:59:35;;;;;;;14.33;11.47;;;;;;;5.09;100.00;152669.88;5045663;28;20447;-83
2023/12/16 02:02:02;;;;;;;14.13;10.20;;;;;;;5.07;100.00;152663.44;5044459;28;20560;-82
2023/12/16 02:04:29;;;;;;;12.97;10.00;;;;;;;5.06;100.00;152660.84;5044580;28;20463;-82
2023/12/16 02:06:56;;;;;;;14.37;10.70;;;;;;;5.03;100.00;152653.16;5045680;28;20434;-82
2023/12/16 02:09:23;;;;;;;11.50;9.60;;;;;;;5.04;100.00;152657.00;5044939;28;20450;-83
2023/12/16 02:11:52;;;;;;;14.47;12.10;;;;;;;5.07;100.00;152664.75;5049216;28;20465;-83
2023/12/16 02:14:20;;;;;;;12.67;10.27;;;;;;;5.10;100.00;152671.19;5049062;28;20541;-83
2023/12/16 02:16:47;;;;;;;13.27;10.37;;;;;;;5.09;100.00;152669.88;5048690;28;20896;-83
2023/12/16 02:19:21;;;;;;;13.87;11.30;;;;;;;5.09;100.00;152668.59;5047265;28;20573;-82
2023/12/16 02:21:48;;;;;;;16.53;11.23;;;;;;;5.10;100.00;152671.19;5044478;28;20489;-83
2023/12/16 02:24:16;;;;;;;13.53;11.03;;;;;;;5.13;100.00;152678.94;5047859;28;20447;-82
2023/12/16 02:26:42;;;;;;;12.37;10.30;;;;;;;5.12;100.00;152676.31;5047395;28;20478;-83
2023/12/16 02:29:09;;;;;;;10.67;9.37;;;;;;;5.07;100.00;152664.75;5046444;28;20486;-83
2023/12/16 02:31:35;;;;;;;15.10;9.53;;;;;;;5.06;100.00;152660.84;5050649;28;20806;-82
2023/12/16 02:34:02;;;;;;;12.10;9.90;;;;;;;5.07;100.00;152663.44;5046866;28;20451;-83
2023/12/16 02:36:28;;;;;;;10.00;8.57;;;;;;;5.05;100.00;152658.31;5050245;28;20450;-82
2023/12/16 02:38:55;;;;;;;11.83;9.83;;;;;;;5.02;100.00;152651.84;5044536;28;20474;-83
2023/12/16 02:41:23;;;;;;;14.70;10.20;;;;;;;5.03;100.00;152654.41;5042238;28;20478;-82
2023/12/16 02:43:49;;;;;;;11.40;9.37;;;;;;;5.03;100.00;152654.41;5045059;28;20497;-82
2023/12/16 02:46:16;;;;;;;14.63;9.70;;;;;;;5.02;100.00;152650.56;5048536;28;20530;-82
2023/12/16 02:48:42;;;;;;;11.27;9.43;;;;;;;4.99;100.00;152642.81;5048959;28;20439;-83
2023/12/16 02:51:17;;;;;;;10.40;8.90;;;;;;;4.96;100.00;152635.06;5044866;28;20459;-83
2023/12/16 02:53:44;;;;;;;11.40;8.77;;;;;;;4.93;100.00;152629.94;5048476;28;20856;-82
2023/12/16 02:56:10;;;;;;;11.43;9.47;;;;;;;4.96;100.00;152635.06;5045582;28;20463;-83
2023/12/16 02:58:39;;;;;;;12.50;9.97;;;;;;;4.95;100.00;152632.53;5045154;28;20517;-83
2023/12/16 03:01:06;;;;;;;13.10;8.83;;;;;;;4.90;100.00;152620.91;5053232;28;20438;-82
2023/12/16 03:03:32;;;;;;;11.37;8.60;;;;;;;4.91;100.00;152623.50;5047394;28;21064;-82
2023/12/16 03:06:04;;;;;;;11.43;9.23;;;;;;;4.92;100.00;152627.34;5045942;28;20454;-82
2023/12/16 03:08:31;;;;;;;10.10;8.60;;;;;;;4.90;100.00;152622.19;5027771;28;21051;-82
2023/12/16 03:10:57;;;;;;;12.13;9.27;;;;;;;4.88;100.00;152615.75;5047581;28;20520;-81
2023/12/16 03:13:24;;;;;;;9.93;8.93;;;;;;;4.87;100.00;152613.22;5047952;28;20478;-81
2023/12/16 03:15:52;;;;;;;12.30;10.20;;;;;;;4.85;100.00;152609.31;5064102;28;20884;-82
2023/12/16 03:18:18;;;;;;;12.50;8.80;;;;;;;4.87;100.00;152613.22;5044608;28;20494;-82
2023/12/16 03:20:45;;;;;;;11.77;8.97;;;;;;;4.88;100.00;152615.75;5044078;28;20463;-83
2023/12/16 03:23:11;;;;;;;9.87;8.67;;;;;;;4.89;100.00;152618.34;5046215;28;20477;-82
2023/12/16 03:25:38;;;;;;;10.90;8.63;;;;;;;4.86;100.00;152610.63;5048224;28;20450;-82
2023/12/16 03:28:05;;;;;;;12.57;10.20;;;;;;;4.87;100.00;152613.22;5044737;28;20566;-82
2023/12/16 03:30:31;;;;;;;10.63;9.20;;;;;;;4.88;100.00;152615.75;5044238;28;20641;-82
2023/12/16 03:32:59;;;;;;;13.10;10.70;;;;;;;4.89;100.00;152619.66;5046483;28;20500;-82
2023/12/16 03:35:26;;;;;;;14.50;11.77;;;;;;;4.90;100.00;152622.19;5048642;28;20984;-82
2023/12/16 03:37:52;;;;;;;13.87;11.13;;;;;;;4.90;100.00;152622.19;5042347;28;20447;-82
2023/12/16 03:40:19;;;;;;;11.17;9.73;;;;;;;4.87;100.00;152614.47;5046815;28;20486;-82
2023/12/16 03:42:45;;;;;;;12.97;10.10;;;;;;;4.87;100.00;152613.22;5046547;28;21055;-82
2023/12/16 03:45:12;;;;;;;10.43;9.17;;;;;;;4.87;100.00;152614.47;5044244;28;20463;-82
2023/12/16 03:47:38;;;;;;;11.10;9.67;;;;;;;4.91;100.00;152623.50;5043853;28;20532;-82
2023/12/16 03:50:07;;;;;;;14.30;9.40;;;;;;;4.95;100.00;152632.53;5045939;28;20451;-82
2023/12/16 03:52:33;;;;;;;14.97;10.30;;;;;;;4.96;100.00;152636.38;5046113;28;20445;-82
2023/12/16 03:55:00;;;;;;;12.70;10.80;;;;;;;4.95;100.00;152633.78;5047165;28;20971;-82
2023/12/16 03:57:29;;;;;;;12.60;9.63;;;;;;;4.96;100.00;152635.06;5044682;28;20961;-82
2023/12/16 03:59:56;;;;;;;9.60;8.10;;;;;;;4.96;100.00;152636.38;5042836;28;20536;-83
2023/12/16 04:02:22;;;;;;;13.17;9.57;;;;;;;4.95;100.00;152633.78;5060286;28;20493;-83
2023/12/16 04:04:48;;;;;;;13.47;10.67;;;;;;;4.93;100.00;152629.94;5045563;28;20823;-83
2023/12/16 04:07:16;;;;;;;16.77;10.63;;;;;;;4.93;100.00;152629.94;5045344;28;20497;-83
2023/12/16 04:09:44;;;;;;;11.63;9.77;;;;;;;4.95;100.00;152632.53;5047519;28;20446;-83
2023/12/16 04:12:11;;;;;;;10.17;8.63;;;;;;;4.93;100.00;152628.63;5046859;28;20451;-83
2023/12/16 04:14:38;;;;;;;12.60;8.57;;;;;;;4.96;100.00;152635.06;5046890;28;20462;-83
2023/12/16 04:17:04;;;;;;;14.80;9.57;;;;;;;4.96;100.00;152635.06;5053772;28;20446;-83
2023/12/16 04:19:31;;;;;;;10.47;9.37;;;;;;;4.95;100.00;152632.53;5054799;28;20492;-82
2023/12/16 04:21:58;;;;;;;12.50;10.07;;;;;;;4.96;100.00;152635.06;5045288;28;20512;-82
2023/12/16 04:24:26;;;;;;;9.37;8.37;;;;;;;4.92;100.00;152627.34;5042403;28;20968;-82
2023/12/16 04:26:52;;;;;;;10.27;8.30;;;;;;;4.91;100.00;152623.50;5045046;28;20458;-82
2023/12/16 04:29:19;;;;;;;14.03;8.83;;;;;;;4.91;100.00;152623.50;5046519;28;20436;-81
2023/12/16 04:31:46;;;;;;;11.63;9.47;;;;;;;4.90;100.00;152622.19;5040692;28;20569;-81
2023/12/16 04:34:12;;;;;;;15.27;10.50;;;;;;;4.88;100.00;152615.75;5046911;28;20512;-82
2023/12/16 04:36:39;;;;;;;11.73;8.77;;;;;;;4.87;100.00;152614.47;5045714;28;20451;-81
2023/12/16 04:39:07;;;;;;;10.80;9.00;;;;;;;4.88;100.00;152615.75;5046615;28;20445;-81
2023/12/16 04:41:35;;;;;;;12.90;9.40;;;;;;;4.89;100.00;152618.34;5041282;28;20473;-83
2023/12/16 04:44:02;;;;;;;13.07;8.93;;;;;;;4.92;100.00;152627.34;5045926;28;20467;-82
2023/12/16 04:46:28;;;;;;;10.97;9.40;;;;;;;4.93;100.00;152629.94;5045862;28;20442;-82
2023/12/16 04:48:55;;;;;;;13.20;10.30;;;;;;;4.96;100.00;152635.06;5045164;28;20458;-81
2023/12/16 04:51:21;;;;;;;12.50;9.83;;;;;;;4.95;100.00;152632.53;5043847;28;20458;-82
2023/12/16 04:53:48;;;;;;;13.40;10.00;;;;;;;4.92;100.00;152627.34;5046133;28;20505;-81
2023/12/16 04:56:15;;;;;;;11.07;9.03;;;;;;;4.93;100.00;152628.63;5044928;28;20466;-82
2023/12/16 04:58:44;;;;;;;11.40;9.33;;;;;;;4.95;100.00;152632.53;5060222;28;20818;-83
2023/12/16 05:01:10;;;;;;;12.40;9.43;;;;;;;4.91;100.00;152623.50;5041034;28;20469;-83
2023/12/16 05:03:37;;;;;;;11.90;10.03;;;;;;;4.88;100.00;152615.75;5060644;28;20478;-83
2023/12/16 05:06:04;;;;;;;11.80;9.83;;;;;;;4.86;100.00;152611.91;5043208;28;21011;-83
2023/12/16 05:08:30;;;;;;;9.93;8.33;;;;;;;4.85;100.00;152608.03;5049804;28;20438;-83
2023/12/16 05:10:57;;;;;;;9.23;8.30;;;;;;;4.83;100.00;152604.16;5040869;28;20459;-83
2023/12/16 05:13:23;;;;;;;10.63;8.30;;;;;;;4.82;100.00;152601.56;5044252;28;20449;-83
2023/12/16 05:15:52;;;;;;;14.67;8.40;;;;;;;4.85;100.00;152609.31;5044488;28;20439;-83
2023/12/16 05:18:18;;;;;;;9.73;8.77;;;;;;;4.85;100.00;152608.03;5056655;28;20843;-82
2023/12/16 05:20:45;;;;;;;9.40;8.17;;;;;;;4.83;100.00;152604.16;5042915;28;20450;-83
2023/12/16 05:23:14;;;;;;;9.33;8.23;;;;;;;4.80;100.00;152595.13;5044565;28;20483;-83
2023/12/16 05:25:41;;;;;;;10.47;8.80;;;;;;;4.80;100.00;152596.44;5044260;28;20457;-83
2023/12/16 05:28:08;;;;;;;10.73;8.00;;;;;;;4.78;100.00;152591.28;5039009;28;21946;-83
2023/12/16 05:30:35;;;;;;;11.43;8.17;;;;;;;4.79;100.00;152593.84;5044422;28;20443;-83
2023/12/16 05:33:03;;;;;;;10.30;9.00;;;;;;;4.76;100.00;152586.16;5060989;28;20433;-83
2023/12/16 05:35:29;;;;;;;11.50;8.40;;;;;;;4.77;100.00;152588.69;5044690;28;20431;-83
2023/12/16 05:37:56;;;;;;;12.90;8.77;;;;;;;4.76;100.00;152586.16;5040557;28;20549;-83
2023/12/16 05:40:23;;;;;;;10.33;8.90;;;;;;;4.77;100.00;152587.41;5049130;28;20465;-83
2023/12/16 05:42:49;;;;;;;9.90;8.33;;;;;;;4.77;100.00;152588.69;5044493;28;20837;-83
2023/12/16 05:45:16;;;;;;;9.90;8.00;;;;;;;4.75;100.00;152583.56;5050863;28;20887;-83
2023/12/16 05:47:42;;;;;;;10.67;8.80;;;;;;;4.73;100.00;152578.41;5051495;28;20560;-83
2023/12/16 05:50:10;;;;;;;11.03;9.20;;;;;;;4.79;100.00;152592.59;5047748;28;20518;-83
2023/12/16 05:52:37;;;;;;;11.77;8.80;;;;;;;4.78;100.00;152591.28;5048998;28;20442;-83
2023/12/16 05:55:05;;;;;;;11.57;8.67;;;;;;;4.74;100.00;152580.97;5063796;28;20459;-83
2023/12/16 05:57:31;;;;;;;10.50;8.30;;;;;;;4.75;100.00;152582.25;5047252;28;20554;-83
2023/12/16 05:59:58;;;;;;;11.50;8.53;;;;;;;4.77;100.00;152587.41;5056549;28;20441;-83
2023/12/16 06:02:27;;;;;;;11.40;9.70;;;;;;;4.76;100.00;152584.84;5054382;28;20542;-75
2023/12/16 06:04:53;;;;;;;10.23;8.83;;;;;;;4.70;100.00;152570.66;5041699;28;20466;-75
2023/12/16 06:07:21;;;;;;;11.03;8.47;;;;;;;4.71;100.00;152573.22;5059333;28;20455;-75
2023/12/16 06:09:48;;;;;;;11.93;8.20;;;;;;;4.70;100.00;152570.66;5044673;28;20528;-75
2023/12/16 06:12:14;;;;;;;10.50;8.30;;;;;;;4.69;100.00;152568.06;5044739;28;20535;-75
2023/12/16 06:14:40;;;;;;;10.50;8.37;;;;;;;4.67;100.00;152562.94;5044369;28;20941;-74
2023/12/16 06:17:07;;;;;;;11.10;8.73;;;;;;;4.66;100.00;152560.34;5043341;28;20458;-75
2023/12/16 06:19:34;;;;;;;11.67;8.20;;;;;;;4.66;100.00;152560.34;5025631;28;20463;-74
2023/12/16 06:22:00;;;;;;;11.47;9.00;;;;;;;4.64;100.00;152553.91;5043318;28;20524;-75
2023/12/16 06:24:28;;;;;;;9.47;7.70;;;;;;;4.62;100.00;152548.75;5043913;28;20478;-75
2023/12/16 06:26:55;;;;;;;11.67;8.60;;;;;;;4.58;100.00;152539.72;5044841;28;20542;-74
2023/12/16 06:29:21;;;;;;;8.90;7.60;;;;;;;4.55;100.00;152532.03;5046082;28;20462;-75
2023/12/16 06:31:48;;;;;;;7.63;6.90;;;;;;;4.52;100.00;152524.28;5044473;28;20539;-75
2023/12/16 06:34:16;;;;;;;9.43;8.30;;;;;;;4.49;100.00;152515.25;5043078;28;20458;-74
2023/12/16 06:36:43;;;;;;;10.13;7.93;;;;;;;4.50;100.00;152519.09;5044644;28;20476;-74
2023/12/16 06:39:09;;;;;;;8.80;7.30;;;;;;;4.49;100.00;152515.25;5043729;28;20537;-74
2023/12/16 06:41:37;;;;;;;11.00;8.37;;;;;;;4.51;100.00;152520.41;5045697;28;20458;-75
2023/12/16 06:44:04;;;;;;;9.30;7.47;;;;;;;4.46;100.00;152508.81;5042617;28;20531;-74
2023/12/16 06:46:31;;;;;;;10.13;8.30;;;;;;;4.43;100.00;152499.78;5042359;28;20446;-74
2023/12/16 06:48:58;;;;;;;9.17;7.80;;;;;;;4.38;100.00;152488.22;5042955;28;20454;-75
2023/12/16 06:51:24;;;;;;;9.63;7.63;;;;;;;4.38;100.00;152486.91;5039892;28;20513;-74
2023/12/16 06:53:51;;;;;;;11.57;9.30;;;;;;;4.43;100.00;152501.09;5041989;28;20459;-74
2023/12/16 06:56:17;;;;;;;11.30;8.67;;;;;;;4.45;100.00;152506.22;5043421;28;20451;-75
2023/12/16 06:58:47;;;;;;;10.80;9.13;;;;;;;4.44;100.00;152503.69;5043710;28;20466;-74
2023/12/16 07:01:14;;;;;;;12.23;8.10;;;;;;;4.46;100.00;152508.81;5039118;28;21216;-74
2023/12/16 07:03:40;;;;;;;10.80;9.00;;;;;;;4.43;100.00;152501.09;5040856;28;20478;-74
2023/12/16 07:06:10;;;;;;;11.93;8.67;;;;;;;4.44;100.00;152503.69;5042979;28;20455;-75
2023/12/16 07:08:37;;;;;;;10.27;7.70;;;;;;;4.42;100.00;152498.50;5023355;28;20453;-75
2023/12/16 07:11:04;;;;;;;12.30;8.83;;;;;;;4.42;100.00;152498.50;5040917;28;20550;-74
2023/12/16 07:13:31;;;;;;;12.57;8.80;;;;;;;4.42;100.00;152498.50;5039347;28;20454;-75
2023/12/16 07:16:03;;;;;;;11.27;9.07;;;;;;;4.36;100.00;152483.06;5039903;28;20548;-74
2023/12/16 07:18:30;;;;;;;13.30;9.87;;;;;;;4.34;100.00;152477.94;5038581;28;20478;-75
2023/12/16 07:20:56;;;;;;;11.80;9.17;;;;;;;4.32;100.00;152472.75;5042703;28;20459;-74
2023/12/16 07:23:24;;;;;;;9.90;8.70;;;;;;;4.36;100.00;152481.78;5041488;28;21000;-75
2023/12/16 07:25:51;;;;;;;10.20;8.30;;;;;;;4.35;100.00;152480.47;5038872;28;20953;-74
2023/12/16 07:28:18;;;;;;;13.23;9.23;;;;;;;4.33;100.00;152475.34;5055602;28;20532;-74
2023/12/16 07:30:44;;;;;;;8.43;7.23;;;;;;;4.34;100.00;152477.94;5054790;28;20462;-74
2023/12/16 07:33:12;;;;;;;9.80;7.53;;;;;;;4.34;100.00;152476.63;5039655;28;20458;-74
2023/12/16 07:35:40;;;;;;;10.33;8.80;;;;;;;4.34;100.00;152477.94;5036962;28;20473;-74
2023/12/16 07:38:07;;;;;;;11.73;8.87;;;;;;;4.35;100.00;152480.47;5041794;28;20637;-75
2023/12/16 07:40:35;;;;;;;8.67;7.43;;;;;;;4.38;100.00;152486.91;5038791;28;20797;-74
2023/12/16 07:43:01;;;;;;;10.90;8.60;;;;;;;4.38;100.00;152486.91;5041197;28;20470;-75
2023/12/16 07:45:28;;;;;;;9.33;8.10;;;;;;;4.37;100.00;152485.63;5040198;28;20512;-74
2023/12/16 07:47:55;;;;;;;10.30;9.07;;;;;;;4.38;100.00;152488.22;5039210;28;20506;-75
2023/12/16 07:50:23;;;;;;;10.47;8.10;;;;;;;4.40;100.00;152492.06;5033554;28;20453;-74
2023/12/16 07:52:49;;;;;;;10.60;8.23;;;;;;;4.40;100.00;152493.34;5040580;28;20461;-74
2023/12/16 07:55:16;;;;;;;10.70;7.70;;;;;;;4.40;100.00;152493.34;5038772;28;20454;-74
2023/12/16 07:57:43;;;;;;;11.17;7.63;;;;;;;4.41;100.00;152495.94;5044083;28;20917;-74
2023/12/16 08:00:10;;;;;;;10.30;8.77;;;;;;;4.42;100.00;152498.50;5044993;28;20461;-74
2023/12/16 08:02:37;;;;;;;10.37;7.80;;;;;;;4.44;100.00;152503.69;5053485;28;21621;-74
2023/12/16 08:05:04;;;;;;;16.20;8.60;;;;;;;4.45;100.00;152504.97;5041316;28;20475;-74
2023/12/16 08:07:32;;;;;;;9.27;7.40;;;;;;;4.46;100.00;152508.81;5023679;28;20455;-74
2023/12/16 08:09:59;;;;;;;11.07;8.43;;;;;;;4.47;100.00;152511.41;5039985;28;20451;-74
2023/12/16 08:12:25;;;;;;;10.00;8.40;;;;;;;4.47;100.00;152511.41;5019825;28;21080;-74
2023/12/16 08:14:52;;;;;;;10.23;8.00;;;;;;;4.50;100.00;152519.09;5044107;28;20805;-74
2023/12/16 08:17:18;;;;;;;9.87;8.17;;;;;;;4.52;100.00;152524.28;5041798;28;20486;-74
2023/12/16 08:19:45;;;;;;;11.07;9.13;;;;;;;4.51;100.00;152521.69;5043811;28;20799;-74
2023/12/16 08:22:12;;;;;;;8.20;7.20;;;;;;;4.53;100.00;152525.53;5042722;28;20471;-74
2023/12/16 08:24:42;;;;;;;10.90;8.30;;;;;;;4.54;100.00;152529.44;5039442;28;20475;-75
2023/12/16 08:27:09;;;;;;;10.37;8.17;;;;;;;4.51;100.00;152521.69;5041105;28;20451;-74
2023/12/16 08:29:36;;;;;;;10.47;8.20;;;;;;;4.54;100.00;152529.44;5041959;28;20462;-74
2023/12/16 08:32:03;;;;;;;11.47;9.03;;;;;;;4.55;100.00;152530.72;5042185;28;20466;-75
2023/12/16 08:34:31;;;;;;;13.13;9.30;;;;;;;4.58;100.00;152538.47;5040516;28;20853;-74
2023/12/16 08:36:59;;;;;;;9.97;8.30;;;;;;;4.62;100.00;152550.06;5042448;28;20554;-74
2023/12/16 08:39:25;;;;;;;13.37;8.90;;;;;;;4.65;100.00;152556.50;5039162;28;20528;-74
2023/12/16 08:41:53;;;;;;;10.60;8.10;;;;;;;4.67;100.00;152562.94;5039677;28;20471;-73
2023/12/16 08:44:20;;;;;;;13.17;8.50;;;;;;;4.69;100.00;152568.06;5042010;28;20536;-73
2023/12/16 08:46:46;;;;;;;11.47;8.70;;;;;;;4.67;100.00;152562.94;5041893;28;20466;-73
2023/12/16 08:49:13;;;;;;;9.53;8.07;;;;;;;4.66;100.00;152560.34;5040360;28;20796;-73
2023/12/16 08:51:39;;;;;;;10.80;8.33;;;;;;;4.67;100.00;152562.94;5045012;28;20455;-73
2023/12/16 08:54:06;;;;;;;11.37;8.50;;;;;;;4.69;100.00;152568.06;5043836;28;20455;-73
2023/12/16 08:56:32;;;;;;;10.60;8.20;;;;;;;4.68;100.00;152565.53;5038552;28;21131;-73
2023/12/16 08:59:00;;;;;;;9.63;7.60;;;;;;;4.69;100.00;152566.78;5042950;28;20451;-73
2023/12/16 09:01:27;;;;;;;10.10;7.60;;;;;;;4.73;100.00;152577.13;5042913;28;20461;-73
2023/12/16 09:03:53;;;;;;;9.77;8.10;;;;;;;4.78;100.00;152591.28;5045039;28;20478;-73
2023/12/16 09:06:20;;;;;;;11.00;8.10;;;;;;;4.81;100.00;152599.03;5042887;28;20472;-73
2023/12/16 09:08:47;;;;;;;8.57;7.23;;;;;;;4.83;100.00;152604.16;5043358;28;20461;-73
2023/12/16 09:11:15;;;;;;;10.50;8.60;;;;;;;4.86;100.00;152610.63;5025598;28;20463;-73
2023/12/16 09:13:41;;;;;;;11.43;8.40;;;;;;;4.85;100.00;152609.31;5042738;28;20443;-74
2023/12/16 09:16:09;;;;;;;9.77;8.13;;;;;;;4.82;100.00;152601.56;5042388;28;20930;-74
2023/12/16 09:18:37;;;;;;;10.03;7.83;;;;;;;4.86;100.00;152611.91;5045422;28;20478;-74
2023/12/16 09:21:03;;;;;;;10.97;8.20;;;;;;;4.86;100.00;152611.91;5047181;28;20454;-74
2023/12/16 09:23:30;;;;;;;10.63;8.43;;;;;;;4.87;100.00;152613.22;5045944;28;20457;-73
2023/12/16 09:25:56;;;;;;;10.53;8.87;;;;;;;4.86;100.00;152610.63;5047603;28;20458;-74
2023/12/16 09:28:23;;;;;;;9.30;7.83;;;;;;;4.91;100.00;152624.78;5048264;28;20459;-74
2023/12/16 09:30:49;;;;;;;10.60;8.40;;;;;;;4.94;100.00;152631.22;5047819;28;20459;-74
2023/12/16 09:33:17;;;;;;;10.00;8.77;;;;;;;4.98;100.00;152640.28;5044322;28;20512;-74
2023/12/16 09:35:44;;;;;;;12.83;8.87;;;;;;;5.02;100.00;152651.84;5045370;28;20451;-74
2023/12/16 09:38:10;;;;;;;11.07;9.30;;;;;;;5.03;100.00;152653.16;5047026;28;20466;-74
2023/12/16 09:40:37;;;;;;;11.57;8.97;;;;;;;5.07;100.00;152664.75;5045838;28;20460;-74
2023/12/16 09:43:14;;;;;;;11.40;9.23;;;;;;;5.08;100.00;152666.03;5043605;28;20508;-74
2023/12/16 09:45:40;;;;;;;11.67;8.50;;;;;;;5.11;100.00;152673.78;5046498;28;20561;-74
2023/12/16 09:48:07;;;;;;;11.70;8.23;;;;;;;5.11;100.00;152673.78;5047693;28;20948;-74
2023/12/16 09:50:36;;;;;;;9.77;8.30;;;;;;;5.13;100.00;152680.22;5043114;28;20465;-74
2023/12/16 09:53:03;;;;;;;10.53;9.17;;;;;;;5.18;100.00;152693.09;5046058;28;20969;-74
2023/12/16 09:55:29;;;;;;;11.67;10.20;;;;;;;5.19;100.00;152694.41;5045989;28;20550;-74
2023/12/16 09:57:58;;;;;;;11.90;8.87;;;;;;;5.20;100.00;152698.25;5027324;28;20462;-74
2023/12/16 10:00:26;;;;;;;11.93;10.57;;;;;;;5.17;100.00;152690.50;5040678;28;20438;-73
2023/12/16 10:02:54;;;;;;;10.70;8.67;;;;;;;5.17;100.00;152689.22;5045710;28;20976;-73
2023/12/16 10:05:25;;;;;;;10.20;8.70;;;;;;;5.20;100.00;152696.94;5044100;28;20474;-73
2023/12/16 10:07:57;;;;;;;11.70;8.80;;;;;;;5.25;100.00;152709.84;5045770;28;20466;-73
2023/12/16 10:10:24;;;;;;;10.87;8.70;;;;;;;5.30;100.00;152722.72;5038958;28;20482;-73
2023/12/16 10:12:51;;;;;;;19.47;14.47;;;;;;;5.33;100.00;152730.47;5041594;28;20525;-73
2023/12/16 10:15:30;;;;;;;20.87;14.43;;;;;;;5.36;100.00;152738.22;5040725;28;20446;-73
2023/12/16 10:17:56;;;;;;;16.23;11.53;;;;;;;5.38;100.00;152743.34;5035949;28;20488;-73
2023/12/16 10:20:23;;;;;;;12.07;10.00;;;;;;;5.40;100.00;152749.81;5043645;28;21372;-73
2023/12/16 10:22:50;;;;;;;9.67;8.40;;;;;;;5.46;100.00;152764.00;5045231;28;20508;-74
2023/12/16 10:25:18;;;;;;;11.37;9.20;;;;;;;5.46;100.00;152765.28;5046986;28;20462;-73
2023/12/16 10:27:45;;;;;;;11.63;10.10;;;;;;;5.45;100.00;152761.44;5044818;28;20861;-73
2023/12/16 10:30:12;;;;;;;10.60;8.80;;;;;;;5.44;100.00;152758.84;5044750;28;21333;-73
2023/12/16 10:32:40;;;;;;;11.27;8.50;;;;;;;5.46;100.00;152765.28;5046152;28;20451;-73
2023/12/16 10:35:07;;;;;;;10.37;9.03;;;;;;;5.52;100.00;152780.78;5046303;28;20455;-74
2023/12/16 10:37:34;;;;;;;9.60;8.60;;;;;;;5.55;100.00;152787.22;5058461;28;21023;-73
2023/12/16 10:40:00;;;;;;;12.00;8.67;;;;;;;5.58;100.00;152794.97;5043095;28;20459;-82
2023/12/16 10:42:28;;;;;;;13.40;8.30;;;;;;;5.60;100.00;152800.09;5049727;28;20461;-82
2023/12/16 10:44:55;;;;;;;10.67;8.97;;;;;;;5.66;100.00;152815.59;5040388;28;20482;-82
2023/12/16 10:47:25;;;;;;;10.90;8.90;;;;;;;5.68;100.00;152820.75;5029601;28;20455;-81
2023/12/16 10:49:53;;;;;;;9.00;8.10;;;;;;;5.68;100.00;152820.75;5059583;28;20524;-81
2023/12/16 10:52:21;;;;;;;10.13;8.83;;;;;;;5.69;100.00;152823.34;5043906;28;20463;-81
2023/12/16 10:54:49;;;;;;;10.40;8.37;;;;;;;5.68;100.00;152820.75;5044139;28;20462;-81
2023/12/16 10:57:21;;;;;;;11.83;9.70;;;;;;;5.68;100.00;152820.75;5044923;28;20707;-80
2023/12/16 10:59:56;;;;;;;11.00;9.17;;;;;;;5.66;100.00;152815.59;5046889;28;20545;-81
2023/12/16 11:02:24;;;;;;;9.60;8.60;;;;;;;5.64;100.00;152809.16;5046490;28;20454;-80
2023/12/16 11:04:57;;;;;;;9.50;8.17;;;;;;;5.69;100.00;152823.34;5044134;28;20831;-80
2023/12/16 11:07:26;;;;;;;11.30;9.30;;;;;;;5.74;100.00;152836.22;5040730;28;20450;-80
2023/12/16 11:09:53;;;;;;;11.17;9.87;;;;;;;5.79;100.00;152847.81;5042144;28;20583;-81
2023/12/16 11:12:19;;;;;;;10.57;9.00;;;;;;;5.81;100.00;152852.97;5044682;28;20458;-81
2023/12/16 11:14:46;;;;;;;11.93;8.80;;;;;;;5.84;100.00;152862.00;5045086;28;20458;-80
2023/12/16 11:17:19;;;;;;;10.97;8.40;;;;;;;5.81;100.00;152854.28;5060158;28;20693;-80